createdAt,value
2023-03-26T00:00:24.024Z,92.59
2023-03-26T00:01:23.976Z,92.59
2023-03-26T00:02:24.054Z,92.59
2023-03-26T00:03:23.974Z,92.29
2023-03-26T00:04:23.921Z,92.14
2023-03-26T00:05:24.004Z,92.29
2023-03-26T00:06:23.872Z,92.29
2023-03-26T00:07:23.879Z,92.29
2023-03-26T00:08:23.952Z,91.87
2023-03-26T00:09:23.874Z,91.83
2023-03-26T00:10:23.878Z,91.97
2023-03-26T00:11:23.899Z,91.66
2023-03-26T00:12:23.832Z,91.72
2023-03-26T00:13:23.856Z,91.56
2023-03-26T00:14:23.961Z,91.83
2023-03-26T00:15:23.885Z,91.97
2023-03-26T00:16:23.709Z,92.08
2023-03-26T00:17:23.925Z,91.87
2023-03-26T00:18:23.912Z,91.83
2023-03-26T00:19:23.841Z,91.66
2023-03-26T00:20:23.846Z,91.66
2023-03-26T00:21:23.833Z,91.31
2023-03-26T00:22:23.925Z,91.46
2023-03-26T00:23:23.712Z,91.46
2023-03-26T00:24:23.727Z,91.56
2023-03-26T00:25:23.732Z,91.42
2023-03-26T00:26:23.731Z,91.66
2023-03-26T00:27:23.861Z,91.56
2023-03-26T00:28:23.727Z,91.46
2023-03-26T00:29:23.834Z,91.25
2023-03-26T00:30:23.716Z,91.15
2023-03-26T00:31:23.659Z,91.46
2023-03-26T00:32:23.679Z,91.56
2023-03-26T00:33:23.608Z,91.66
2023-03-26T00:34:23.717Z,91.77
2023-03-26T00:35:23.727Z,91.97
2023-03-26T00:36:23.689Z,92.08
2023-03-26T00:37:23.636Z,92.18
2023-03-26T00:38:23.635Z,92.29
2023-03-26T00:39:23.638Z,92.29
2023-03-26T00:40:23.575Z,92.49
2023-03-26T00:41:23.583Z,92.49
2023-03-26T00:42:23.608Z,92.49
2023-03-26T00:43:23.540Z,92.49
2023-03-26T00:44:23.625Z,92.69
2023-03-26T00:45:23.542Z,92.80
2023-03-26T00:46:23.519Z,92.90
2023-03-26T00:47:23.512Z,93.11
2023-03-26T00:48:31.607Z,93.11
2023-03-26T00:49:23.502Z,93.11
2023-03-26T00:50:23.524Z,93.31
2023-03-26T00:51:23.468Z,93.41
2023-03-26T00:52:23.562Z,93.41
2023-03-26T00:53:23.497Z,93.52
2023-03-26T00:54:23.467Z,93.52
2023-03-26T00:55:23.527Z,93.62
2023-03-26T00:56:23.438Z,93.73
2023-03-26T00:57:34.991Z,93.73
2023-03-26T00:58:23.395Z,93.83
2023-03-26T00:59:23.361Z,93.83
2023-03-26T01:00:23.372Z,93.73
2023-03-26T01:01:23.454Z,93.73
2023-03-26T01:02:23.440Z,93.83
2023-03-26T01:03:27.447Z,93.87
2023-03-26T01:04:23.438Z,93.98
2023-03-26T01:05:23.348Z,94.18
2023-03-26T01:06:23.347Z,94.28
2023-03-26T01:07:23.347Z,94.34
2023-03-26T01:08:23.258Z,94.38
2023-03-26T01:09:23.255Z,94.38
2023-03-26T01:10:23.247Z,94.28
2023-03-26T01:11:23.244Z,94.13
2023-03-26T01:12:23.328Z,94.03
2023-03-26T01:13:23.390Z,94.13
2023-03-26T01:14:23.261Z,93.83
2023-03-26T01:15:23.260Z,93.73
2023-03-26T01:16:23.342Z,93.73
2023-03-26T01:17:23.368Z,93.93
2023-03-26T01:18:23.234Z,94.13
2023-03-26T01:19:23.244Z,94.34
2023-03-26T01:20:23.239Z,94.45
2023-03-26T01:21:23.222Z,94.13
2023-03-26T01:22:23.021Z,94.03
2023-03-26T01:23:23.133Z,94.45
2023-03-26T01:24:23.141Z,94.45
2023-03-26T01:25:23.206Z,94.45
2023-03-26T01:26:23.122Z,94.76
2023-03-26T01:27:23.128Z,94.76
2023-03-26T01:28:23.148Z,94.65
2023-03-26T01:29:22.970Z,94.55
2023-03-26T01:30:23.185Z,94.65
2023-03-26T01:31:23.103Z,94.76
2023-03-26T01:32:23.346Z,94.76
2023-03-26T01:33:23.246Z,94.45
2023-03-26T01:34:23.078Z,94.45
2023-03-26T01:35:23.193Z,94.24
2023-03-26T01:36:23.121Z,94.24
2023-03-26T01:37:22.969Z,94.24
2023-03-26T01:38:23.304Z,94.34
2023-03-26T01:39:22.842Z,93.73
2023-03-26T01:40:22.937Z,93.62
2023-03-26T01:41:22.948Z,93.62
2023-03-26T01:42:23.032Z,93.83
2023-03-26T01:43:22.887Z,93.93
2023-03-26T01:44:22.962Z,94.03
2023-03-26T01:45:22.869Z,93.62
2023-03-26T01:46:22.919Z,93.52
2023-03-26T01:47:22.929Z,93.73
2023-03-26T01:48:22.881Z,93.73
2023-03-26T01:49:22.964Z,93.73
2023-03-26T01:50:22.811Z,93.83
2023-03-26T01:51:22.847Z,93.93
2023-03-26T01:52:22.692Z,93.93
2023-03-26T01:53:22.899Z,93.93
2023-03-26T01:54:22.841Z,93.73
2023-03-26T01:55:22.638Z,93.62
2023-03-26T01:56:22.843Z,93.83
2023-03-26T01:57:22.756Z,93.62
2023-03-26T01:58:22.743Z,93.41
2023-03-26T01:59:22.790Z,93.31
2023-03-26T02:00:22.827Z,93.41
2023-03-26T02:01:22.796Z,93.21
2023-03-26T02:02:22.884Z,93.21
2023-03-26T02:03:22.837Z,93.11
2023-03-26T02:04:22.722Z,93.21
2023-03-26T02:05:22.684Z,93.21
2023-03-26T02:06:22.811Z,93.31
2023-03-26T02:07:22.781Z,93.41
2023-03-26T02:08:22.738Z,93.21
2023-03-26T02:09:22.783Z,93.11
2023-03-26T02:10:22.708Z,93.21
2023-03-26T02:11:23.289Z,93.21
2023-03-26T02:12:22.619Z,93.01
2023-03-26T02:13:22.739Z,93.01
2023-03-26T02:14:22.586Z,93.21
2023-03-26T02:15:22.612Z,93.41
2023-03-26T02:16:22.640Z,93.41
2023-03-26T02:17:22.586Z,93.21
2023-03-26T02:18:22.573Z,93.21
2023-03-26T02:19:22.506Z,93.21
2023-03-26T02:20:22.525Z,93.21
2023-03-26T02:21:22.617Z,93.11
2023-03-26T02:22:22.542Z,93.01
2023-03-26T02:23:22.652Z,92.90
2023-03-26T02:24:22.517Z,92.80
2023-03-26T02:25:22.519Z,92.90
2023-03-26T02:26:22.330Z,92.90
2023-03-26T02:27:22.451Z,93.21
2023-03-26T02:28:22.545Z,93.35
2023-03-26T02:29:22.460Z,93.21
2023-03-26T02:30:22.463Z,93.31
2023-03-26T02:31:22.401Z,93.11
2023-03-26T02:32:22.428Z,92.59
2023-03-26T02:33:22.393Z,92.69
2023-03-26T02:34:22.446Z,92.69
2023-03-26T02:35:22.567Z,92.80
2023-03-26T02:36:22.431Z,92.69
2023-03-26T02:37:22.387Z,92.90
2023-03-26T02:38:22.321Z,93.11
2023-03-26T02:39:22.404Z,93.11
2023-03-26T02:40:22.414Z,93.11
2023-03-26T02:41:22.289Z,93.21
2023-03-26T02:42:22.380Z,93.31
2023-03-26T02:43:22.316Z,93.41
2023-03-26T02:44:22.313Z,93.62
2023-03-26T02:45:22.323Z,93.31
2023-03-26T02:46:22.309Z,93.21
2023-03-26T02:47:22.267Z,93.01
2023-03-26T02:48:22.237Z,93.21
2023-03-26T02:49:22.239Z,93.31
2023-03-26T02:50:22.318Z,93.31
2023-03-26T02:51:22.233Z,93.31
2023-03-26T02:52:22.063Z,93.11
2023-03-26T02:53:22.034Z,93.01
2023-03-26T02:54:22.237Z,93.11
2023-03-26T02:55:22.229Z,93.31
2023-03-26T02:56:22.305Z,93.31
2023-03-26T02:57:22.152Z,93.41
2023-03-26T02:58:22.193Z,93.31
2023-03-26T02:59:22.206Z,93.52
2023-03-26T03:00:22.245Z,93.62
2023-03-26T03:01:22.137Z,93.52
2023-03-26T03:02:22.151Z,93.41
2023-03-26T03:03:22.175Z,93.31
2023-03-26T03:04:21.954Z,93.21
2023-03-26T03:05:22.108Z,93.31
2023-03-26T03:06:22.089Z,93.11
2023-03-26T03:07:22.055Z,93.11
2023-03-26T03:08:22.112Z,93.11
2023-03-26T03:09:21.847Z,93.11
2023-03-26T03:10:22.029Z,93.21
2023-03-26T03:11:22.260Z,93.31
2023-03-26T03:12:21.842Z,93.31
2023-03-26T03:13:21.978Z,93.21
2023-03-26T03:14:22.012Z,93.01
2023-03-26T03:15:21.960Z,93.01
2023-03-26T03:16:21.968Z,93.11
2023-03-26T03:17:22.021Z,93.11
2023-03-26T03:18:22.010Z,93.21
2023-03-26T03:19:21.922Z,93.21
2023-03-26T03:20:21.900Z,93.21
2023-03-26T03:21:21.891Z,93.31
2023-03-26T03:22:21.870Z,93.21
2023-03-26T03:23:21.847Z,93.21
2023-03-26T03:24:21.933Z,93.31
2023-03-26T03:25:21.860Z,93.41
2023-03-26T03:26:21.884Z,93.31
2023-03-26T03:27:21.887Z,93.31
2023-03-26T03:28:21.881Z,93.21
2023-03-26T03:29:21.967Z,93.31
2023-03-26T03:30:21.823Z,93.31
2023-03-26T03:31:21.887Z,93.21
2023-03-26T03:32:21.856Z,93.01
2023-03-26T03:33:21.758Z,93.11
2023-03-26T03:34:21.899Z,93.11
2023-03-26T03:35:21.828Z,93.11
2023-03-26T03:36:21.807Z,93.11
2023-03-26T03:37:21.713Z,93.11
2023-03-26T03:38:21.802Z,93.11
2023-03-26T03:39:21.815Z,93.21
2023-03-26T03:40:21.662Z,93.21
2023-03-26T03:41:21.755Z,93.31
2023-03-26T03:42:21.681Z,93.52
2023-03-26T03:43:21.680Z,93.62
2023-03-26T03:44:21.763Z,93.73
2023-03-26T03:45:21.642Z,93.83
2023-03-26T03:46:21.644Z,94.03
2023-03-26T03:47:21.646Z,94.13
2023-03-26T03:48:21.581Z,94.34
2023-03-26T03:49:21.695Z,94.34
2023-03-26T03:50:21.627Z,94.34
2023-03-26T03:51:21.562Z,94.45
2023-03-26T03:52:21.565Z,94.45
2023-03-26T03:53:21.563Z,94.55
2023-03-26T03:54:21.558Z,94.45
2023-03-26T03:55:21.438Z,94.45
2023-03-26T03:56:21.599Z,94.34
2023-03-26T03:57:21.503Z,94.45
2023-03-26T03:58:21.487Z,94.45
2023-03-26T03:59:21.471Z,94.45
2023-03-26T04:00:21.599Z,94.45
2023-03-26T04:01:21.507Z,94.55
2023-03-26T04:02:21.595Z,94.65
2023-03-26T04:03:34.187Z,94.85
2023-03-26T04:04:21.543Z,94.96
2023-03-26T04:05:21.448Z,94.96
2023-03-26T04:06:21.465Z,95.06
2023-03-26T04:07:21.474Z,95.06
2023-03-26T04:08:21.377Z,95.27
2023-03-26T04:09:21.375Z,95.27
2023-03-26T04:10:21.384Z,95.27
2023-03-26T04:11:21.400Z,95.27
2023-03-26T04:12:21.401Z,95.37
2023-03-26T04:13:21.418Z,95.48
2023-03-26T04:14:21.340Z,95.48
2023-03-26T04:15:21.351Z,95.48
2023-03-26T04:16:21.360Z,95.37
2023-03-26T04:17:21.310Z,95.27
2023-03-26T04:18:21.358Z,95.37
2023-03-26T04:19:21.264Z,95.27
2023-03-26T04:20:21.149Z,95.17
2023-03-26T04:21:21.315Z,95.17
2023-03-26T04:22:21.246Z,95.37
2023-03-26T04:23:21.264Z,95.37
2023-03-26T04:24:21.267Z,95.37
2023-03-26T04:25:21.288Z,95.37
2023-03-26T04:26:21.207Z,95.27
2023-03-26T04:27:21.209Z,95.37
2023-03-26T04:28:21.205Z,95.37
2023-03-26T04:29:21.193Z,95.27
2023-03-26T04:30:21.181Z,95.27
2023-03-26T04:31:21.028Z,95.17
2023-03-26T04:32:21.034Z,95.17
2023-03-26T04:33:21.123Z,95.27
2023-03-26T04:34:21.250Z,95.48
2023-03-26T04:35:21.188Z,95.48
2023-03-26T04:36:21.139Z,95.37
2023-03-26T04:37:21.148Z,95.37
2023-03-26T04:38:21.077Z,95.37
2023-03-26T04:39:21.079Z,95.48
2023-03-26T04:40:21.183Z,95.48
2023-03-26T04:41:21.038Z,95.37
2023-03-26T04:42:21.038Z,95.37
2023-03-26T04:43:21.052Z,95.37
2023-03-26T04:44:21.118Z,95.37
2023-03-26T04:45:21.030Z,95.27
2023-03-26T04:46:20.854Z,95.37
2023-03-26T04:47:20.929Z,95.17
2023-03-26T04:48:20.976Z,95.17
2023-03-26T04:49:20.963Z,95.17
2023-03-26T04:50:21.030Z,95.06
2023-03-26T04:51:20.995Z,95.17
2023-03-26T04:52:20.979Z,95.17
2023-03-26T04:53:20.887Z,95.27
2023-03-26T04:54:20.865Z,95.37
2023-03-26T04:55:20.928Z,95.27
2023-03-26T04:56:20.928Z,95.27
2023-03-26T04:57:20.838Z,95.27
2023-03-26T04:58:20.820Z,95.17
2023-03-26T04:59:20.815Z,95.27
2023-03-26T05:00:20.820Z,95.06
2023-03-26T05:01:20.915Z,95.06
2023-03-26T05:02:20.808Z,95.06
2023-03-26T05:03:20.885Z,95.17
2023-03-26T05:04:20.784Z,95.37
2023-03-26T05:05:20.796Z,95.27
2023-03-26T05:06:20.768Z,95.27
2023-03-26T05:07:20.813Z,95.06
2023-03-26T05:08:20.692Z,95.17
2023-03-26T05:09:20.764Z,95.27
2023-03-26T05:10:20.715Z,95.17
2023-03-26T05:11:20.774Z,94.96
2023-03-26T05:12:20.688Z,95.06
2023-03-26T05:13:20.680Z,95.27
2023-03-26T05:14:20.668Z,95.17
2023-03-26T05:15:20.650Z,95.06
2023-03-26T05:16:20.650Z,95.06
2023-03-26T05:17:20.673Z,95.17
2023-03-26T05:18:20.460Z,95.27
2023-03-26T05:19:20.609Z,95.27
2023-03-26T05:20:20.660Z,95.06
2023-03-26T05:21:20.626Z,95.06
2023-03-26T05:22:20.596Z,94.96
2023-03-26T05:23:20.664Z,94.85
2023-03-26T05:24:20.644Z,94.76
2023-03-26T05:25:20.557Z,94.65
2023-03-26T05:26:20.518Z,94.65
2023-03-26T05:27:20.546Z,94.76
2023-03-26T05:28:20.601Z,94.85
2023-03-26T05:29:20.482Z,94.96
2023-03-26T05:30:20.516Z,94.71
2023-03-26T05:31:20.467Z,94.34
2023-03-26T05:32:20.438Z,94.34
2023-03-26T05:33:20.528Z,94.34
2023-03-26T05:34:20.525Z,94.40
2023-03-26T05:35:20.470Z,94.55
2023-03-26T05:36:20.423Z,94.51
2023-03-26T05:37:20.455Z,94.30
2023-03-26T05:38:20.394Z,94.20
2023-03-26T05:39:20.473Z,94.09
2023-03-26T05:40:20.368Z,94.09
2023-03-26T05:41:20.356Z,93.99
2023-03-26T05:42:20.352Z,93.99
2023-03-26T05:43:20.337Z,94.09
2023-03-26T05:44:20.396Z,94.09
2023-03-26T05:45:20.359Z,93.99
2023-03-26T05:46:20.403Z,93.88
2023-03-26T05:47:20.309Z,93.99
2023-03-26T05:48:20.271Z,93.68
2023-03-26T05:49:20.151Z,93.58
2023-03-26T05:50:20.302Z,93.37
2023-03-26T05:51:20.287Z,93.37
2023-03-26T05:52:20.200Z,93.68
2023-03-26T05:53:20.334Z,93.68
2023-03-26T05:54:20.322Z,93.79
2023-03-26T05:55:20.356Z,93.68
2023-03-26T05:56:20.240Z,93.58
2023-03-26T05:57:20.280Z,93.58
2023-03-26T05:58:20.176Z,93.58
2023-03-26T05:59:20.233Z,93.68
2023-03-26T06:00:20.025Z,93.37
2023-03-26T06:01:20.322Z,93.27
2023-03-26T06:02:20.180Z,93.58
2023-03-26T06:03:20.342Z,93.68
2023-03-26T06:04:20.270Z,93.48
2023-03-26T06:05:20.103Z,93.48
2023-03-26T06:06:20.098Z,93.58
2023-03-26T06:07:20.224Z,93.48
2023-03-26T06:08:20.108Z,93.68
2023-03-26T06:09:20.098Z,93.58
2023-03-26T06:10:20.240Z,93.58
2023-03-26T06:11:20.039Z,93.48
2023-03-26T06:12:19.923Z,93.58
2023-03-26T06:13:19.945Z,93.68
2023-03-26T06:14:19.876Z,93.54
2023-03-26T06:15:19.934Z,93.43
2023-03-26T06:16:26.957Z,93.64
2023-03-26T06:17:19.940Z,93.64
2023-03-26T06:18:20.037Z,93.54
2023-03-26T06:19:20.021Z,93.64
2023-03-26T06:20:19.969Z,93.02
2023-03-26T06:21:19.967Z,93.02
2023-03-26T06:22:19.883Z,93.12
2023-03-26T06:23:19.969Z,93.33
2023-03-26T06:24:19.802Z,93.33
2023-03-26T06:25:19.829Z,93.33
2023-03-26T06:26:19.753Z,93.23
2023-03-26T06:27:19.805Z,93.02
2023-03-26T06:28:19.894Z,93.23
2023-03-26T06:29:19.956Z,93.33
2023-03-26T06:30:19.708Z,93.43
2023-03-26T06:31:19.781Z,93.54
2023-03-26T06:32:20.612Z,93.02
2023-03-26T06:33:19.690Z,92.82
2023-03-26T06:34:19.739Z,92.92
2023-03-26T06:35:19.671Z,93.02
2023-03-26T06:36:19.760Z,93.33
2023-03-26T06:37:19.670Z,92.61
2023-03-26T06:38:19.921Z,92.71
2023-03-26T06:39:19.824Z,92.77
2023-03-26T06:40:19.674Z,92.67
2023-03-26T06:41:19.750Z,92.77
2023-03-26T06:42:19.755Z,92.77
2023-03-26T06:43:19.590Z,92.36
2023-03-26T06:44:19.854Z,92.25
2023-03-26T06:45:19.625Z,92.16
2023-03-26T06:46:19.646Z,92.57
2023-03-26T06:47:19.717Z,92.67
2023-03-26T06:48:19.602Z,92.77
2023-03-26T06:49:19.784Z,92.77
2023-03-26T06:50:19.546Z,92.67
2023-03-26T06:51:19.512Z,92.46
2023-03-26T06:52:19.502Z,92.52
2023-03-26T06:53:19.507Z,91.49
2023-03-26T06:54:19.527Z,91.70
2023-03-26T06:55:19.484Z,91.91
2023-03-26T06:56:19.513Z,91.39
2023-03-26T06:57:19.464Z,91.19
2023-03-26T06:58:19.432Z,91.19
2023-03-26T06:59:19.587Z,91.39
2023-03-26T07:00:19.409Z,91.49
2023-03-26T07:01:19.489Z,91.08
2023-03-26T07:02:19.443Z,91.08
2023-03-26T07:03:19.553Z,91.39
2023-03-26T07:04:19.463Z,91.91
2023-03-26T07:05:19.404Z,92.11
2023-03-26T07:06:19.521Z,92.01
2023-03-26T07:07:19.438Z,91.91
2023-03-26T07:08:19.509Z,92.25
2023-03-26T07:09:19.388Z,92.36
2023-03-26T07:10:19.386Z,92.46
2023-03-26T07:11:19.330Z,92.77
2023-03-26T07:12:19.343Z,92.97
2023-03-26T07:13:19.409Z,93.08
2023-03-26T07:14:19.414Z,93.18
2023-03-26T07:15:19.396Z,93.18
2023-03-26T07:16:19.494Z,93.59
2023-03-26T07:17:19.306Z,93.70
2023-03-26T07:18:19.280Z,93.49
2023-03-26T07:19:19.223Z,92.97
2023-03-26T07:20:19.232Z,91.95
2023-03-26T07:21:19.358Z,91.49
2023-03-26T07:22:19.330Z,91.70
2023-03-26T07:23:19.288Z,92.01
2023-03-26T07:24:19.324Z,92.11
2023-03-26T07:25:19.185Z,92.11
2023-03-26T07:26:19.214Z,91.91
2023-03-26T07:27:19.201Z,91.49
2023-03-26T07:28:19.307Z,90.78
2023-03-26T07:29:19.182Z,90.57
2023-03-26T07:30:19.127Z,90.88
2023-03-26T07:31:19.489Z,91.45
2023-03-26T07:32:19.276Z,91.55
2023-03-26T07:33:19.236Z,91.00
2023-03-26T07:34:19.057Z,90.18
2023-03-26T07:35:19.188Z,90.08
2023-03-26T07:36:19.064Z,90.34
2023-03-26T07:37:19.281Z,90.14
2023-03-26T07:38:19.161Z,89.99
2023-03-26T07:39:19.279Z,90.09
2023-03-26T07:40:19.150Z,88.96
2023-03-26T07:41:19.114Z,88.14
2023-03-26T07:42:18.954Z,86.77
2023-03-26T07:43:18.982Z,87.18
2023-03-26T07:44:19.165Z,87.28
2023-03-26T07:45:18.930Z,87.18
2023-03-26T07:46:19.141Z,87.49
2023-03-26T07:47:19.112Z,87.59
2023-03-26T07:48:19.049Z,86.66
2023-03-26T07:49:19.101Z,87.18
2023-03-26T07:50:19.140Z,87.18
2023-03-26T07:51:19.052Z,87.08
2023-03-26T07:52:19.202Z,85.74
2023-03-26T07:53:19.043Z,85.74
2023-03-26T07:54:18.903Z,86.46
2023-03-26T07:55:18.984Z,85.09
2023-03-26T07:56:18.989Z,85.71
2023-03-26T07:57:18.953Z,87.08
2023-03-26T07:58:18.922Z,87.34
2023-03-26T07:59:19.000Z,87.24
2023-03-26T08:00:18.934Z,87.04
2023-03-26T08:01:18.900Z,85.71
2023-03-26T08:02:19.038Z,85.19
2023-03-26T08:03:19.140Z,85.91
2023-03-26T08:04:24.614Z,85.77
2023-03-26T08:05:19.096Z,85.56
2023-03-26T08:06:18.874Z,85.80
2023-03-26T08:07:18.710Z,85.09
2023-03-26T08:08:18.887Z,85.09
2023-03-26T08:09:18.883Z,85.60
2023-03-26T08:10:18.963Z,85.91
2023-03-26T08:11:18.682Z,86.52
2023-03-26T08:12:18.858Z,86.73
2023-03-26T08:13:18.838Z,86.22
2023-03-26T08:14:18.846Z,86.42
2023-03-26T08:15:18.736Z,86.32
2023-03-26T08:16:18.858Z,85.13
2023-03-26T08:17:18.737Z,85.33
2023-03-26T08:18:18.633Z,84.72
2023-03-26T08:19:18.717Z,85.23
2023-03-26T08:20:18.728Z,86.36
2023-03-26T08:21:18.605Z,87.08
2023-03-26T08:22:18.744Z,86.77
2023-03-26T08:23:18.735Z,86.77
2023-03-26T08:24:18.723Z,87.79
2023-03-26T08:25:18.816Z,86.46
2023-03-26T08:26:18.741Z,86.36
2023-03-26T08:27:18.744Z,86.25
2023-03-26T08:28:18.654Z,86.36
2023-03-26T08:29:18.644Z,86.36
2023-03-26T08:30:18.639Z,85.64
2023-03-26T08:31:18.653Z,85.85
2023-03-26T08:32:18.714Z,85.44
2023-03-26T08:33:18.625Z,86.25
2023-03-26T08:34:18.612Z,86.66
2023-03-26T08:35:18.633Z,85.27
2023-03-26T08:36:18.384Z,85.99
2023-03-26T08:37:18.759Z,86.30
2023-03-26T08:38:18.629Z,86.09
2023-03-26T08:39:18.397Z,86.30
2023-03-26T08:40:18.556Z,86.50
2023-03-26T08:41:18.377Z,86.81
2023-03-26T08:42:18.507Z,87.12
2023-03-26T08:43:18.462Z,86.19
2023-03-26T08:44:18.338Z,86.40
2023-03-26T08:45:18.297Z,86.40
2023-03-26T08:46:18.584Z,86.77
2023-03-26T08:47:18.564Z,86.66
2023-03-26T08:48:18.332Z,86.98
2023-03-26T08:49:18.482Z,86.73
2023-03-26T08:50:18.454Z,85.71
2023-03-26T08:51:18.256Z,85.97
2023-03-26T08:52:18.370Z,85.77
2023-03-26T08:53:18.262Z,84.80
2023-03-26T08:54:18.238Z,83.37
2023-03-26T08:55:18.246Z,83.03
2023-03-26T08:56:18.388Z,82.62
2023-03-26T08:57:18.400Z,82.68
2023-03-26T08:58:18.411Z,81.41
2023-03-26T08:59:18.297Z,81.21
2023-03-26T09:00:18.426Z,81.17
2023-03-26T09:01:18.365Z,79.98
2023-03-26T09:02:18.373Z,79.84
2023-03-26T09:03:18.303Z,79.53
2023-03-26T09:04:18.404Z,79.53
2023-03-26T09:05:18.380Z,81.01
2023-03-26T09:06:18.427Z,80.60
2023-03-26T09:07:18.359Z,80.76
2023-03-26T09:08:18.165Z,79.94
2023-03-26T09:09:19.097Z,78.82
2023-03-26T09:10:18.144Z,78.00
2023-03-26T09:11:18.171Z,79.02
2023-03-26T09:12:18.080Z,78.86
2023-03-26T09:13:18.089Z,78.75
2023-03-26T09:14:18.007Z,79.23
2023-03-26T09:15:18.041Z,81.07
2023-03-26T09:16:18.044Z,81.17
2023-03-26T09:17:18.045Z,80.97
2023-03-26T09:18:18.032Z,80.56
2023-03-26T09:19:18.013Z,79.23
2023-03-26T09:20:17.961Z,78.41
2023-03-26T09:21:17.973Z,76.78
2023-03-26T09:22:17.949Z,76.81
2023-03-26T09:23:17.925Z,77.32
2023-03-26T09:24:17.907Z,78.45
2023-03-26T09:25:17.900Z,78.55
2023-03-26T09:26:17.909Z,78.75
2023-03-26T09:27:17.914Z,79.98
2023-03-26T09:28:17.875Z,79.47
2023-03-26T09:29:18.036Z,77.83
2023-03-26T09:30:17.996Z,78.86
2023-03-26T09:31:18.003Z,79.37
2023-03-26T09:32:17.937Z,79.33
2023-03-26T09:33:18.079Z,79.88
2023-03-26T09:34:17.968Z,78.75
2023-03-26T09:35:17.929Z,78.34
2023-03-26T09:36:17.958Z,78.28
2023-03-26T09:37:17.817Z,78.65
2023-03-26T09:38:17.894Z,79.16
2023-03-26T09:39:17.865Z,78.24
2023-03-26T09:40:17.919Z,77.01
2023-03-26T09:41:17.910Z,78.34
2023-03-26T09:42:17.952Z,77.90
2023-03-26T09:43:17.840Z,76.20
2023-03-26T09:44:17.971Z,76.37
2023-03-26T09:45:17.839Z,75.96
2023-03-26T09:46:17.866Z,78.11
2023-03-26T09:47:17.789Z,76.78
2023-03-26T09:48:17.765Z,76.67
2023-03-26T09:49:17.823Z,76.98
2023-03-26T09:50:17.799Z,76.78
2023-03-26T09:51:17.785Z,76.81
2023-03-26T09:52:17.754Z,77.53
2023-03-26T09:53:17.730Z,77.22
2023-03-26T09:54:17.858Z,77.01
2023-03-26T09:55:17.758Z,76.81
2023-03-26T09:56:17.733Z,76.57
2023-03-26T09:57:17.808Z,76.98
2023-03-26T09:58:17.703Z,77.08
2023-03-26T09:59:17.493Z,76.88
2023-03-26T10:00:17.748Z,74.84
2023-03-26T10:01:17.539Z,74.93
2023-03-26T10:02:17.667Z,74.84
2023-03-26T10:03:17.633Z,74.73
2023-03-26T10:04:17.605Z,75.14
2023-03-26T10:05:17.525Z,74.11
2023-03-26T10:06:17.502Z,74.39
2023-03-26T10:07:17.487Z,73.88
2023-03-26T10:08:17.421Z,74.69
2023-03-26T10:09:17.431Z,74.80
2023-03-26T10:10:17.564Z,76.29
2023-03-26T10:11:17.447Z,75.48
2023-03-26T10:12:17.411Z,73.94
2023-03-26T10:13:17.566Z,74.11
2023-03-26T10:14:17.422Z,74.52
2023-03-26T10:15:17.468Z,75.24
2023-03-26T10:16:17.394Z,75.20
2023-03-26T10:17:17.553Z,74.63
2023-03-26T10:18:27.473Z,72.82
2023-03-26T10:19:17.964Z,73.71
2023-03-26T10:20:17.361Z,72.99
2023-03-26T10:21:17.297Z,72.38
2023-03-26T10:22:17.587Z,73.10
2023-03-26T10:23:17.310Z,74.01
2023-03-26T10:24:17.384Z,73.60
2023-03-26T10:25:17.449Z,74.22
2023-03-26T10:26:17.426Z,73.91
2023-03-26T10:27:17.413Z,73.47
2023-03-26T10:28:17.537Z,72.96
2023-03-26T10:29:17.334Z,72.34
2023-03-26T10:30:17.435Z,71.63
2023-03-26T10:31:17.277Z,70.72
2023-03-26T10:32:17.304Z,71.22
2023-03-26T10:33:17.323Z,71.43
2023-03-26T10:34:28.471Z,71.67
2023-03-26T10:35:17.321Z,71.26
2023-03-26T10:36:17.299Z,72.28
2023-03-26T10:37:17.292Z,72.99
2023-03-26T10:38:17.402Z,72.89
2023-03-26T10:39:38.114Z,72.17
2023-03-26T10:40:17.285Z,72.28
2023-03-26T10:41:17.197Z,72.11
2023-03-26T10:42:17.181Z,73.06
2023-03-26T10:43:17.248Z,73.57
2023-03-26T10:44:17.346Z,73.36
2023-03-26T10:45:17.310Z,73.36
2023-03-26T10:46:17.195Z,72.75
2023-03-26T10:47:17.132Z,72.24
2023-03-26T10:48:17.127Z,72.99
2023-03-26T10:49:17.004Z,73.98
2023-03-26T10:50:23.235Z,73.88
2023-03-26T10:51:17.258Z,73.47
2023-03-26T10:52:17.151Z,73.36
2023-03-26T10:53:17.110Z,73.36
2023-03-26T10:54:17.052Z,73.47
2023-03-26T10:55:17.095Z,73.81
2023-03-26T10:56:17.042Z,73.91
2023-03-26T10:57:17.166Z,74.84
2023-03-26T10:58:17.092Z,75.55
2023-03-26T10:59:17.018Z,76.16
2023-03-26T11:00:17.047Z,74.63
2023-03-26T11:01:17.010Z,75.75
2023-03-26T11:02:17.112Z,75.31
2023-03-26T11:03:17.014Z,76.12
2023-03-26T11:04:17.011Z,76.84
2023-03-26T11:05:17.023Z,77.56
2023-03-26T11:06:16.994Z,78.68
2023-03-26T11:07:17.027Z,75.92
2023-03-26T11:08:16.779Z,76.03
2023-03-26T11:09:16.943Z,76.43
2023-03-26T11:10:16.810Z,78.07
2023-03-26T11:11:16.746Z,80.32
2023-03-26T11:12:26.532Z,80.11
2023-03-26T11:13:16.992Z,81.13
2023-03-26T11:14:24.453Z,81.34
2023-03-26T11:15:16.762Z,81.85
2023-03-26T11:16:16.810Z,81.74
2023-03-26T11:17:39.412Z,81.44
2023-03-26T11:18:16.701Z,81.13
2023-03-26T11:19:16.920Z,80.52
2023-03-26T11:20:16.706Z,80.93
2023-03-26T11:21:19.371Z,79.80
2023-03-26T11:22:16.684Z,80.01
2023-03-26T11:23:16.747Z,80.42
2023-03-26T11:24:16.961Z,79.29
2023-03-26T11:25:16.842Z,79.33
2023-03-26T11:26:16.743Z,78.20
2023-03-26T11:27:18.410Z,78.00
2023-03-26T11:28:16.717Z,78.14
2023-03-26T11:29:32.334Z,77.94
2023-03-26T11:30:16.628Z,78.14
2023-03-26T11:31:16.726Z,78.04
2023-03-26T11:32:16.576Z,79.10
2023-03-26T11:33:16.738Z,79.71
2023-03-26T11:34:16.647Z,79.34
2023-03-26T11:35:16.726Z,79.13
2023-03-26T11:36:16.606Z,79.24
2023-03-26T11:37:16.481Z,80.26
2023-03-26T11:38:16.528Z,80.36
2023-03-26T11:39:16.603Z,80.51
2023-03-26T11:40:16.761Z,80.51
2023-03-26T11:41:16.578Z,79.27
2023-03-26T11:42:16.507Z,79.99
2023-03-26T11:43:16.430Z,79.07
2023-03-26T11:44:16.461Z,80.03
2023-03-26T11:45:16.384Z,80.88
2023-03-26T11:46:16.554Z,81.91
2023-03-26T11:47:16.365Z,83.39
2023-03-26T11:48:16.500Z,83.59
2023-03-26T11:49:16.357Z,84.00
2023-03-26T11:50:16.529Z,83.53
2023-03-26T11:51:16.498Z,83.83
2023-03-26T11:52:16.372Z,81.82
2023-03-26T11:53:16.478Z,81.71
2023-03-26T11:54:16.521Z,82.89
2023-03-26T11:55:16.456Z,81.86
2023-03-26T11:56:16.490Z,83.23
2023-03-26T11:57:16.500Z,82.62
2023-03-26T11:58:16.416Z,84.16
2023-03-26T11:59:16.455Z,85.39
2023-03-26T12:00:16.364Z,85.80
2023-03-26T12:01:16.357Z,85.60
2023-03-26T12:02:16.457Z,86.32
2023-03-26T12:03:16.426Z,87.04
2023-03-26T12:04:16.399Z,86.32
2023-03-26T12:05:16.172Z,85.39
2023-03-26T12:06:16.176Z,85.70
2023-03-26T12:07:16.172Z,84.16
2023-03-26T12:08:16.190Z,82.96
2023-03-26T12:09:16.132Z,83.37
2023-03-26T12:10:18.951Z,84.71
2023-03-26T12:11:16.272Z,85.33
2023-03-26T12:12:16.492Z,84.91
2023-03-26T12:13:16.325Z,85.02
2023-03-26T12:14:16.100Z,85.33
2023-03-26T12:15:16.280Z,85.43
2023-03-26T12:16:16.341Z,84.81
2023-03-26T12:17:16.161Z,86.46
2023-03-26T12:18:16.082Z,86.05
2023-03-26T12:19:16.260Z,86.29
2023-03-26T12:20:16.027Z,86.05
2023-03-26T12:21:16.195Z,86.15
2023-03-26T12:22:16.158Z,87.01
2023-03-26T12:23:16.002Z,87.01
2023-03-26T12:24:16.085Z,87.12
2023-03-26T12:25:15.979Z,86.91
2023-03-26T12:26:16.027Z,86.87
2023-03-26T12:27:15.990Z,87.69
2023-03-26T12:28:16.004Z,87.59
2023-03-26T12:29:15.989Z,88.10
2023-03-26T12:30:15.939Z,88.10
2023-03-26T12:31:15.912Z,86.46
2023-03-26T12:32:15.935Z,85.84
2023-03-26T12:33:15.933Z,85.22
2023-03-26T12:34:15.899Z,85.53
2023-03-26T12:35:15.852Z,86.25
2023-03-26T12:36:15.861Z,86.83
2023-03-26T12:37:15.835Z,87.34
2023-03-26T12:38:15.832Z,85.49
2023-03-26T12:40:07.390Z,86.00
2023-03-26T12:40:19.352Z,85.35
2023-03-26T12:44:44.760Z,85.14
2023-03-26T12:45:02.482Z,84.74
2023-03-26T12:45:08.169Z,86.21
2023-03-26T12:47:54.962Z,86.87
2023-03-26T12:48:07.162Z,86.93
2023-03-26T12:48:12.839Z,87.45
2023-03-26T12:49:13.022Z,87.75
2023-03-26T12:50:12.666Z,88.27
2023-03-26T12:51:12.705Z,88.47
2023-03-26T12:52:12.591Z,88.57
2023-03-26T12:53:12.579Z,86.46
2023-03-26T12:54:12.656Z,86.87